WYE012 KPDX-KRDM
Flight info
| Callsign | WYE012 |
|---|---|
| Flight time | 0h 25m |
| Altitude | 17000 |
| Route | WHAMY5 WHAMY CUPRI |
| Aircraft | CRJ7/M-SDFGIRWY/S |
Departure
| Time | 2026-05-04 17:02 |
|---|---|
| Airport | Portland International Airport (KPDX) |
Arrival
| Time | 2026-05-04 17:27 |
|---|---|
| Airport | Roberts Field (KRDM) |
| Time | Latitude | Longitude | Altitude | Speed | Heading |
|---|---|---|---|---|---|
| 2026-05-04 16:43 | 45.58830 | -122.58701 | 29 ft | 0 kts | 233° |
| 2026-05-04 16:53 | 45.58833 | -122.58695 | 29 ft | 2 kts | 231° |
| 2026-05-04 16:54 | 45.58842 | -122.58676 | 29 ft | 2 kts | 234° |
| 2026-05-04 16:55 | 45.58897 | -122.58628 | 29 ft | 2 kts | 207° |
| 2026-05-04 16:55 | 45.58903 | -122.58605 | 29 ft | 0 kts | 295° |
| 2026-05-04 16:56 | 45.58905 | -122.58610 | 29 ft | 1 kts | 295° |
| 2026-05-04 16:57 | 45.58907 | -122.58615 | 29 ft | 0 kts | 295° |
| 2026-05-04 16:58 | 45.58952 | -122.58740 | 29 ft | 11 kts | 299° |
| 2026-05-04 16:58 | 45.58995 | -122.58852 | 29 ft | 15 kts | 298° |
| 2026-05-04 16:59 | 45.59118 | -122.59165 | 29 ft | 21 kts | 299° |
| 2026-05-04 17:00 | 45.59424 | -122.59957 | 28 ft | 25 kts | 300° |
| 2026-05-04 17:00 | 45.59556 | -122.60060 | 29 ft | 0 kts | 29° |
| 2026-05-04 17:01 | 45.59632 | -122.59959 | 30 ft | 14 kts | 94° |
| 2026-05-04 17:01 | 45.59188 | -122.58814 | 31 ft | 132 kts | 120° |
| 2026-05-04 17:02 | 45.58133 | -122.56180 | 1175 ft | 154 kts | 122° |
| 2026-05-04 17:02 | 45.57575 | -122.53217 | 2417 ft | 166 kts | 99° |
| 2026-05-04 17:03 | 45.57413 | -122.51530 | 2590 ft | 193 kts | 99° |
| 2026-05-04 17:03 | 45.57172 | -122.49488 | 2839 ft | 222 kts | 103° |
| 2026-05-04 17:03 | 45.56367 | -122.44824 | 3858 ft | 259 kts | 104° |
| 2026-05-04 17:04 | 45.55379 | -122.39696 | 5271 ft | 276 kts | 102° |
| 2026-05-04 17:04 | 45.54388 | -122.34313 | 6863 ft | 285 kts | 104° |
| 2026-05-04 17:05 | 45.51786 | -122.30034 | 8398 ft | 297 kts | 145° |
| 2026-05-04 17:05 | 45.48310 | -122.26822 | 9964 ft | 303 kts | 144° |
| 2026-05-04 17:06 | 45.44957 | -122.22783 | 10732 ft | 335 kts | 136° |
| 2026-05-04 17:06 | 45.43218 | -122.20457 | 11067 ft | 351 kts | 136° |
| 2026-05-04 17:07 | 45.39601 | -122.15722 | 12310 ft | 361 kts | 136° |
| 2026-05-04 17:07 | 45.38359 | -122.14142 | 12802 ft | 361 kts | 137° |
| 2026-05-04 17:07 | 45.35858 | -122.10970 | 13731 ft | 367 kts | 136° |
| 2026-05-04 17:07 | 45.33951 | -122.08550 | 14370 ft | 370 kts | 136° |
| 2026-05-04 17:08 | 45.32029 | -122.06113 | 15034 ft | 371 kts | 136° |
| 2026-05-04 17:08 | 45.28176 | -122.01220 | 16260 ft | 376 kts | 136° |
| 2026-05-04 17:08 | 45.26193 | -121.98734 | 16655 ft | 386 kts | 136° |
| 2026-05-04 17:09 | 45.24105 | -121.96233 | 16825 ft | 400 kts | 138° |
| 2026-05-04 17:09 | 45.22176 | -121.93996 | 16893 ft | 414 kts | 139° |
| 2026-05-04 17:09 | 45.21890 | -121.93667 | 16891 ft | 417 kts | 139° |
| 2026-05-04 17:10 | 45.17245 | -121.88274 | 16953 ft | 447 kts | 139° |
| 2026-05-04 17:10 | 45.12252 | -121.83116 | 18304 ft | 256 kts | 139° |
| 2026-05-04 17:11 | 45.10904 | -121.81492 | 17881 ft | 262 kts | 132° |
| 2026-05-04 17:11 | 45.09588 | -121.79697 | 17428 ft | 272 kts | 132° |
| 2026-05-04 17:11 | 45.09305 | -121.79315 | 17354 ft | 273 kts | 133° |
| 2026-05-04 17:12 | 45.07095 | -121.76594 | 17024 ft | 277 kts | 137° |
| 2026-05-04 17:13 | 45.02333 | -121.71270 | 16956 ft | 309 kts | 139° |
| 2026-05-04 17:14 | 44.97000 | -121.65266 | 16941 ft | 346 kts | 138° |
| 2026-05-04 17:14 | 44.95093 | -121.63106 | 16953 ft | 354 kts | 138° |
| 2026-05-04 17:14 | 44.91214 | -121.58653 | 16937 ft | 364 kts | 138° |
| 2026-05-04 17:15 | 44.89235 | -121.56366 | 16964 ft | 373 kts | 138° |
| 2026-05-04 17:15 | 44.85138 | -121.51664 | 16973 ft | 391 kts | 139° |
| 2026-05-04 17:16 | 44.80858 | -121.46811 | 16965 ft | 407 kts | 139° |
| 2026-05-04 17:16 | 44.74103 | -121.39179 | 16948 ft | 424 kts | 139° |
| 2026-05-04 17:17 | 44.71828 | -121.36617 | 16945 ft | 414 kts | 139° |
| 2026-05-04 17:17 | 44.65321 | -121.29278 | 16512 ft | 393 kts | 139° |
| 2026-05-04 17:18 | 44.63205 | -121.26895 | 15991 ft | 386 kts | 138° |
| 2026-05-04 17:18 | 44.60144 | -121.21036 | 15014 ft | 366 kts | 114° |
| 2026-05-04 17:19 | 44.58080 | -121.14632 | 14116 ft | 355 kts | 111° |
| 2026-05-04 17:19 | 44.56120 | -121.08568 | 13207 ft | 348 kts | 113° |
| 2026-05-04 17:20 | 44.54061 | -121.02515 | 12248 ft | 340 kts | 113° |
| 2026-05-04 17:20 | 44.52094 | -120.96745 | 11334 ft | 316 kts | 113° |
| 2026-05-04 17:20 | 44.51161 | -120.94015 | 10908 ft | 306 kts | 113° |
| 2026-05-04 17:21 | 44.48461 | -120.89743 | 10127 ft | 293 kts | 147° |
| 2026-05-04 17:21 | 44.44927 | -120.87189 | 9370 ft | 282 kts | 154° |
| 2026-05-04 17:22 | 44.43166 | -120.86035 | 9000 ft | 277 kts | 154° |
| 2026-05-04 17:22 | 44.41437 | -120.84887 | 8613 ft | 275 kts | 154° |
| 2026-05-04 17:23 | 44.36530 | -120.87267 | 7518 ft | 274 kts | 239° |
| 2026-05-04 17:23 | 44.35587 | -120.89584 | 7179 ft | 275 kts | 244° |
| 2026-05-04 17:23 | 44.33817 | -120.94237 | 6465 ft | 265 kts | 245° |
| 2026-05-04 17:24 | 44.32965 | -120.96491 | 6119 ft | 261 kts | 244° |
| 2026-05-04 17:24 | 44.30532 | -121.02576 | 5187 ft | 208 kts | 243° |
| 2026-05-04 17:25 | 44.29879 | -121.04187 | 4948 ft | 172 kts | 242° |
| 2026-05-04 17:25 | 44.28768 | -121.06786 | 4497 ft | 150 kts | 243° |
| 2026-05-04 17:26 | 44.27761 | -121.09259 | 3968 ft | 149 kts | 244° |
| 2026-05-04 17:26 | 44.26261 | -121.12974 | 3205 ft | 147 kts | 242° |
| 2026-05-04 17:27 | 44.25415 | -121.15059 | 3077 ft | 58 kts | 240° |
| 2026-05-04 17:27 | 44.25330 | -121.15564 | 3085 ft | 19 kts | 240° |
| 2026-05-04 17:28 | 44.25291 | -121.15854 | 3084 ft | 6 kts | 295° |